sensor_id;sensor_type;location;lat;lon;timestamp;pressure;altitude;pressure_sealevel;temperature;humidity
7760;BME280;3924;48.830;9.262;2023-05-07T00:00:18;98461.97;;;16.04;68.64
7760;BME280;3924;48.830;9.262;2023-05-07T00:02:46;98464.25;;;16.02;68.98
7760;BME280;3924;48.830;9.262;2023-05-07T00:05:13;98467.66;;;15.99;68.89
7760;BME280;3924;48.830;9.262;2023-05-07T00:07:41;98467.66;;;15.99;69.00
7760;BME280;3924;48.830;9.262;2023-05-07T00:10:08;98469.91;;;15.97;69.09
7760;BME280;3924;48.830;9.262;2023-05-07T00:12:35;98469.44;;;15.95;69.04
7760;BME280;3924;48.830;9.262;2023-05-07T00:15:03;98468.97;;;15.93;69.22
7760;BME280;3924;48.830;9.262;2023-05-07T00:17:30;98470.09;;;15.92;69.29
7760;BME280;3924;48.830;9.262;2023-05-07T00:19:57;98472.69;;;15.89;69.57
7760;BME280;3924;48.830;9.262;2023-05-07T00:22:23;98465.34;;;15.80;69.72
7760;BME280;3924;48.830;9.262;2023-05-07T00:24:50;98473.88;;;15.79;69.75
7760;BME280;3924;48.830;9.262;2023-05-07T00:27:16;98470.00;;;15.80;69.71
7760;BME280;3924;48.830;9.262;2023-05-07T00:29:43;98464.88;;;15.78;69.93
7760;BME280;3924;48.830;9.262;2023-05-07T00:32:09;98459.72;;;15.77;70.01
7760;BME280;3924;48.830;9.262;2023-05-07T00:34:36;98465.03;;;15.73;70.19
7760;BME280;3924;48.830;9.262;2023-05-07T00:37:03;98463.63;;;15.67;70.10
7760;BME280;3924;48.830;9.262;2023-05-07T00:39:32;98466.19;;;15.64;70.22
7760;BME280;3924;48.830;9.262;2023-05-07T00:41:58;98463.00;;;15.62;70.38
7760;BME280;3924;48.830;9.262;2023-05-07T00:44:25;98454.31;;;15.59;70.70
7760;BME280;3924;48.830;9.262;2023-05-07T00:46:53;98454.94;;;15.56;70.37
7760;BME280;3924;48.830;9.262;2023-05-07T00:49:20;98448.53;;;15.52;70.50
7760;BME280;3924;48.830;9.262;2023-05-07T00:51:47;98446.13;;;15.51;70.91
7760;BME280;3924;48.830;9.262;2023-05-07T00:54:13;98450.78;;;15.50;70.94
7760;BME280;3924;48.830;9.262;2023-05-07T00:56:40;98440.53;;;15.47;70.96
7760;BME280;3924;48.830;9.262;2023-05-07T00:59:07;98442.78;;;15.45;71.20
7760;BME280;3924;48.830;9.262;2023-05-07T01:01:34;98445.34;;;15.42;71.19
7760;BME280;3924;48.830;9.262;2023-05-07T01:04:01;98442.63;;;15.42;71.30
7760;BME280;3924;48.830;9.262;2023-05-07T01:06:29;98443.28;;;15.39;71.32
7760;BME280;3924;48.830;9.262;2023-05-07T01:08:56;98449.06;;;15.37;71.31
7760;BME280;3924;48.830;9.262;2023-05-07T01:11:24;98438.81;;;15.34;71.67
7760;BME280;3924;48.830;9.262;2023-05-07T01:13:52;98446.03;;;15.30;71.51
7760;BME280;3924;48.830;9.262;2023-05-07T01:16:19;98446.69;;;15.27;71.70
7760;BME280;3924;48.830;9.262;2023-05-07T01:18:46;98448.00;;;15.21;71.88
7760;BME280;3924;48.830;9.262;2023-05-07T01:21:16;98445.59;;;15.19;71.96
7760;BME280;3924;48.830;9.262;2023-05-07T01:23:44;98442.53;;;15.21;71.99
7760;BME280;3924;48.830;9.262;2023-05-07T01:26:12;98446.72;;;15.18;72.04
7760;BME280;3924;48.830;9.262;2023-05-07T01:28:38;98444.78;;;15.19;72.10
7760;BME280;3924;48.830;9.262;2023-05-07T01:31:05;98442.06;;;15.19;72.06
7760;BME280;3924;48.830;9.262;2023-05-07T01:33:34;98449.13;;;15.20;72.16
7760;BME280;3924;48.830;9.262;2023-05-07T01:36:02;98443.50;;;15.16;72.13
7760;BME280;3924;48.830;9.262;2023-05-07T01:38:33;98438.38;;;15.15;72.44
7760;BME280;3924;48.830;9.262;2023-05-07T01:40:59;98439.97;;;15.16;72.34
7760;BME280;3924;48.830;9.262;2023-05-07T01:43:26;98439.97;;;15.16;72.50
7760;BME280;3924;48.830;9.262;2023-05-07T01:45:53;98441.09;;;15.15;72.36
7760;BME280;3924;48.830;9.262;2023-05-07T01:48:20;98435.16;;;15.13;72.38
7760;BME280;3924;48.830;9.262;2023-05-07T01:50:47;98430.50;;;15.13;72.63
7760;BME280;3924;48.830;9.262;2023-05-07T01:53:15;98430.84;;;15.12;72.77
7760;BME280;3924;48.830;9.262;2023-05-07T01:55:41;98431.97;;;15.11;72.67
7760;BME280;3924;48.830;9.262;2023-05-07T01:58:08;98426.81;;;15.09;72.65
7760;BME280;3924;48.830;9.262;2023-05-07T02:00:34;98435.50;;;15.02;72.76
7760;BME280;3924;48.830;9.262;2023-05-07T02:03:01;98438.41;;;14.97;72.86
7760;BME280;3924;48.830;9.262;2023-05-07T02:05:28;98438.41;;;14.97;72.96
7760;BME280;3924;48.830;9.262;2023-05-07T02:07:54;98437.63;;;14.97;72.96
7760;BME280;3924;48.830;9.262;2023-05-07T02:10:21;98436.50;;;14.98;72.96
7760;BME280;3924;48.830;9.262;2023-05-07T02:12:47;98439.84;;;14.95;73.14
7760;BME280;3924;48.830;9.262;2023-05-07T02:15:14;98442.13;;;14.93;73.26
7760;BME280;3924;48.830;9.262;2023-05-07T02:18:04;98438.13;;;14.90;73.29
7760;BME280;3924;48.830;9.262;2023-05-07T02:20:31;98443.56;;;14.90;73.50
7760;BME280;3924;48.830;9.262;2023-05-07T02:22:57;98441.00;;;14.85;73.57
7760;BME280;3924;48.830;9.262;2023-05-07T02:25:24;98444.69;;;14.81;73.48
7760;BME280;3924;48.830;9.262;2023-05-07T02:27:51;98445.69;;;14.76;73.59
7760;BME280;3924;48.830;9.262;2023-05-07T02:30:17;98441.97;;;14.72;73.50
7760;BME280;3924;48.830;9.262;2023-05-07T02:32:44;98448.25;;;14.72;73.65
7760;BME280;3924;48.830;9.262;2023-05-07T02:35:10;98448.41;;;14.76;73.69
7760;BME280;3924;48.830;9.262;2023-05-07T02:37:38;98444.56;;;14.77;73.65
7760;BME280;3924;48.830;9.262;2023-05-07T02:40:05;98438.13;;;14.73;73.89
7760;BME280;3924;48.830;9.262;2023-05-07T02:42:32;98442.78;;;14.72;74.20
7760;BME280;3924;48.830;9.262;2023-05-07T02:44:59;98444.38;;;14.73;74.04
7760;BME280;3924;48.830;9.262;2023-05-07T02:47:25;98437.31;;;14.72;73.95
7760;BME280;3924;48.830;9.262;2023-05-07T02:49:54;98446.63;;;14.71;74.27
7760;BME280;3924;48.830;9.262;2023-05-07T02:52:21;98441.34;;;14.66;74.25
7760;BME280;3924;48.830;9.262;2023-05-07T02:54:48;98444.41;;;14.65;74.39
7760;BME280;3924;48.830;9.262;2023-05-07T02:57:15;98446.16;;;14.61;74.48
7760;BME280;3924;48.830;9.262;2023-05-07T02:59:43;98435.88;;;14.58;74.60
7760;BME280;3924;48.830;9.262;2023-05-07T03:02:09;98432.19;;;14.54;74.68
7760;BME280;3924;48.830;9.262;2023-05-07T03:04:36;98438.78;;;14.53;74.65
7760;BME280;3924;48.830;9.262;2023-05-07T03:07:03;98438.94;;;14.47;74.93
7760;BME280;3924;48.830;9.262;2023-05-07T03:09:29;98441.31;;;14.40;74.95
7760;BME280;3924;48.830;9.262;2023-05-07T03:11:56;98439.22;;;14.37;75.23
7760;BME280;3924;48.830;9.262;2023-05-07T03:14:23;98434.91;;;14.36;74.95
7760;BME280;3924;48.830;9.262;2023-05-07T03:16:50;98430.72;;;14.30;75.33
7760;BME280;3924;48.830;9.262;2023-05-07T03:19:16;98425.41;;;14.25;75.39
7760;BME280;3924;48.830;9.262;2023-05-07T03:21:43;98424.16;;;14.22;75.45
7760;BME280;3924;48.830;9.262;2023-05-07T03:24:09;98416.28;;;14.21;75.61
7760;BME280;3924;48.830;9.262;2023-05-07T03:26:36;98422.38;;;14.18;75.49
7760;BME280;3924;48.830;9.262;2023-05-07T03:29:02;98422.38;;;14.18;75.51
7760;BME280;3924;48.830;9.262;2023-05-07T03:31:29;98421.41;;;14.14;75.65
7760;BME280;3924;48.830;9.262;2023-05-07T03:33:57;98432.47;;;14.09;75.62
7760;BME280;3924;48.830;9.262;2023-05-07T03:36:24;98431.16;;;14.06;75.86
7760;BME280;3924;48.830;9.262;2023-05-07T03:38:52;98430.88;;;14.08;75.98
7760;BME280;3924;48.830;9.262;2023-05-07T03:41:19;98432.94;;;14.11;75.80
7760;BME280;3924;48.830;9.262;2023-05-07T03:43:46;98433.59;;;14.08;75.87
7760;BME280;3924;48.830;9.262;2023-05-07T03:46:13;98431.97;;;14.07;75.88
7760;BME280;3924;48.830;9.262;2023-05-07T03:48:39;98429.09;;;14.03;75.91
7760;BME280;3924;48.830;9.262;2023-05-07T03:51:06;98429.22;;;13.98;75.98
7760;BME280;3924;48.830;9.262;2023-05-07T03:53:33;98434.19;;;13.87;76.01
7760;BME280;3924;48.830;9.262;2023-05-07T03:55:59;98439.78;;;13.82;76.15
7760;BME280;3924;48.830;9.262;2023-05-07T03:58:26;98434.59;;;13.72;76.22
7760;BME280;3924;48.830;9.262;2023-05-07T04:00:52;98435.25;;;13.69;76.40
7760;BME280;3924;48.830;9.262;2023-05-07T04:03:19;98435.72;;;13.71;76.42
7760;BME280;3924;48.830;9.262;2023-05-07T04:05:46;98437.97;;;13.69;76.56
7760;BME280;3924;48.830;9.262;2023-05-07T04:08:12;98443.41;;;13.69;76.56
7760;BME280;3924;48.830;9.262;2023-05-07T04:10:38;98437.03;;;13.74;76.57
7760;BME280;3924;48.830;9.262;2023-05-07T04:13:05;98441.38;;;13.75;76.49
7760;BME280;3924;48.830;9.262;2023-05-07T04:15:31;98440.56;;;13.74;76.66
7760;BME280;3924;48.830;9.262;2023-05-07T04:17:58;98448.41;;;13.76;76.51
7760;BME280;3924;48.830;9.262;2023-05-07T04:20:25;98443.75;;;13.76;76.68
7760;BME280;3924;48.830;9.262;2023-05-07T04:22:51;98448.09;;;13.77;76.51
7760;BME280;3924;48.830;9.262;2023-05-07T04:25:18;98449.69;;;13.78;76.59
7760;BME280;3924;48.830;9.262;2023-05-07T04:27:44;98455.47;;;13.77;76.46
7760;BME280;3924;48.830;9.262;2023-05-07T04:30:12;98452.25;;;13.75;76.60
7760;BME280;3924;48.830;9.262;2023-05-07T04:32:39;98453.69;;;13.72;76.61
7760;BME280;3924;48.830;9.262;2023-05-07T04:35:06;98463.03;;;13.80;76.47
7760;BME280;3924;48.830;9.262;2023-05-07T04:37:33;98468.50;;;13.88;76.49
7760;BME280;3924;48.830;9.262;2023-05-07T04:40:00;98457.13;;;13.95;76.34
7760;BME280;3924;48.830;9.262;2023-05-07T04:42:26;98466.91;;;14.05;76.35
7760;BME280;3924;48.830;9.262;2023-05-07T04:44:53;98463.72;;;14.11;76.02
7760;BME280;3924;48.830;9.262;2023-05-07T04:47:20;98456.34;;;14.12;76.10
7760;BME280;3924;48.830;9.262;2023-05-07T04:49:46;98462.59;;;14.04;76.18
7760;BME280;3924;48.830;9.262;2023-05-07T04:52:13;98466.31;;;14.08;76.33
7760;BME280;3924;48.830;9.262;2023-05-07T04:54:39;98468.06;;;14.12;76.18
7760;BME280;3924;48.830;9.262;2023-05-07T04:57:06;98470.50;;;14.14;76.11
7760;BME280;3924;48.830;9.262;2023-05-07T04:59:33;98478.66;;;14.14;76.16
7760;BME280;3924;48.830;9.262;2023-05-07T05:01:59;98479.28;;;14.11;76.09
7760;BME280;3924;48.830;9.262;2023-05-07T05:04:27;98474.31;;;14.13;76.30
7760;BME280;3924;48.830;9.262;2023-05-07T05:06:53;98483.00;;;14.15;76.48
7760;BME280;3924;48.830;9.262;2023-05-07T05:09:20;98476.91;;;14.18;76.32
7760;BME280;3924;48.830;9.262;2023-05-07T05:11:46;98477.88;;;14.22;76.25
7760;BME280;3924;48.830;9.262;2023-05-07T05:14:13;98487.19;;;14.21;76.52
7760;BME280;3924;48.830;9.262;2023-05-07T05:16:39;98489.59;;;14.22;76.39
7760;BME280;3924;48.830;9.262;2023-05-07T05:19:06;98490.84;;;14.25;76.20
7760;BME280;3924;48.830;9.262;2023-05-07T05:21:33;98485.88;;;14.27;76.27
7760;BME280;3924;48.830;9.262;2023-05-07T05:23:59;98500.50;;;14.31;76.17
7760;BME280;3924;48.830;9.262;2023-05-07T05:26:26;98497.16;;;14.34;76.44
7760;BME280;3924;48.830;9.262;2023-05-07T05:28:53;98494.25;;;14.39;76.05
7760;BME280;3924;48.830;9.262;2023-05-07T05:31:19;98485.91;;;14.44;76.04
7760;BME280;3924;48.830;9.262;2023-05-07T05:33:46;98481.47;;;14.48;75.88
7760;BME280;3924;48.830;9.262;2023-05-07T05:36:12;98477.28;;;14.60;75.76
7760;BME280;3924;48.830;9.262;2023-05-07T05:38:39;98487.91;;;14.70;75.59
7760;BME280;3924;48.830;9.262;2023-05-07T05:41:06;98495.28;;;14.78;75.36
7760;BME280;3924;48.830;9.262;2023-05-07T05:43:33;98501.53;;;15.04;75.08
7760;BME280;3924;48.830;9.262;2023-05-07T05:45:59;98495.38;;;15.33;74.44
7760;BME280;3924;48.830;9.262;2023-05-07T05:48:28;98486.63;;;15.49;74.04
7760;BME280;3924;48.830;9.262;2023-05-07T05:50:55;98505.53;;;15.71;73.71
7760;BME280;3924;48.830;9.262;2023-05-07T05:53:21;98496.16;;;15.90;73.24
7760;BME280;3924;48.830;9.262;2023-05-07T05:55:48;98491.69;;;16.14;72.37
7760;BME280;3924;48.830;9.262;2023-05-07T05:58:14;98488.81;;;16.40;72.17
7760;BME280;3924;48.830;9.262;2023-05-07T06:00:41;98488.81;;;16.61;71.55
7760;BME280;3924;48.830;9.262;2023-05-07T06:03:08;98494.84;;;16.76;71.34
7760;BME280;3924;48.830;9.262;2023-05-07T06:05:34;98499.69;;;16.91;71.19
7760;BME280;3924;48.830;9.262;2023-05-07T06:08:01;98502.69;;;16.98;70.76
7760;BME280;3924;48.830;9.262;2023-05-07T06:10:27;98508.63;;;17.00;70.91
7760;BME280;3924;48.830;9.262;2023-05-07T06:12:54;98499.69;;;16.91;70.71
7760;BME280;3924;48.830;9.262;2023-05-07T06:15:21;98502.72;;;16.77;71.16
7760;BME280;3924;48.830;9.262;2023-05-07T06:17:48;98515.50;;;16.64;71.09
7760;BME280;3924;48.830;9.262;2023-05-07T06:20:15;98511.63;;;16.65;71.10
7760;BME280;3924;48.830;9.262;2023-05-07T06:22:42;98507.19;;;16.82;70.78
7760;BME280;3924;48.830;9.262;2023-05-07T06:25:08;98498.91;;;16.90;70.39
7760;BME280;3924;48.830;9.262;2023-05-07T06:27:35;98503.94;;;16.88;70.57
7760;BME280;3924;48.830;9.262;2023-05-07T06:30:02;98509.09;;;16.81;70.45
7760;BME280;3924;48.830;9.262;2023-05-07T06:32:28;98510.47;;;16.75;70.70
7760;BME280;3924;48.830;9.262;2023-05-07T06:34:55;98523.41;;;16.87;70.57
7760;BME280;3924;48.830;9.262;2023-05-07T06:37:21;98509.66;;;16.95;70.11
7760;BME280;3924;48.830;9.262;2023-05-07T06:39:48;98512.44;;;17.08;69.74
7760;BME280;3924;48.830;9.262;2023-05-07T06:42:14;98512.69;;;17.15;69.65
7760;BME280;3924;48.830;9.262;2023-05-07T06:44:42;98510.13;;;17.31;69.04
7760;BME280;3924;48.830;9.262;2023-05-07T06:47:09;98507.34;;;17.52;68.76
7760;BME280;3924;48.830;9.262;2023-05-07T06:49:35;98505.44;;;17.76;68.09
7760;BME280;3924;48.830;9.262;2023-05-07T06:52:01;98516.44;;;17.89;67.86
7760;BME280;3924;48.830;9.262;2023-05-07T06:54:28;98511.19;;;18.08;67.50
7760;BME280;3924;48.830;9.262;2023-05-07T06:56:55;98511.50;;;18.31;66.86
7760;BME280;3924;48.830;9.262;2023-05-07T06:59:21;98512.50;;;18.51;66.34
7760;BME280;3924;48.830;9.262;2023-05-07T07:01:48;98503.69;;;18.70;65.86
7760;BME280;3924;48.830;9.262;2023-05-07T07:04:14;98502.16;;;18.84;65.54
7760;BME280;3924;48.830;9.262;2023-05-07T07:06:41;98508.06;;;18.99;65.03
7760;BME280;3924;48.830;9.262;2023-05-07T07:09:08;98500.50;;;19.08;64.83
7760;BME280;3924;48.830;9.262;2023-05-07T07:11:34;98506.72;;;19.21;64.74
7760;BME280;3924;48.830;9.262;2023-05-07T07:14:01;98507.03;;;19.31;64.41
7760;BME280;3924;48.830;9.262;2023-05-07T07:16:27;98500.91;;;19.38;64.04
7760;BME280;3924;48.830;9.262;2023-05-07T07:18:54;98501.88;;;19.58;63.67
7760;BME280;3924;48.830;9.262;2023-05-07T07:21:20;98501.06;;;19.73;63.28
7760;BME280;3924;48.830;9.262;2023-05-07T07:23:47;98492.31;;;19.83;63.00
7760;BME280;3924;48.830;9.262;2023-05-07T07:26:13;98495.41;;;19.98;62.60
7760;BME280;3924;48.830;9.262;2023-05-07T07:28:46;98491.31;;;19.91;62.39
7760;BME280;3924;48.830;9.262;2023-05-07T07:31:13;98486.69;;;19.95;62.37
7760;BME280;3924;48.830;9.262;2023-05-07T07:33:41;98481.81;;;20.05;61.97
7760;BME280;3924;48.830;9.262;2023-05-07T07:36:08;98489.16;;;20.01;62.28
7760;BME280;3924;48.830;9.262;2023-05-07T07:38:34;98487.84;;;19.94;62.01
7760;BME280;3924;48.830;9.262;2023-05-07T07:41:01;98489.16;;;20.01;61.91
7760;BME280;3924;48.830;9.262;2023-05-07T07:43:28;98493.75;;;20.28;61.17
7760;BME280;3924;48.830;9.262;2023-05-07T07:45:54;98489.00;;;20.60;60.56
7760;BME280;3924;48.830;9.262;2023-05-07T07:48:21;98490.09;;;20.75;60.18
7760;BME280;3924;48.830;9.262;2023-05-07T07:50:49;98488.06;;;20.91;59.94
7760;BME280;3924;48.830;9.262;2023-05-07T07:53:17;98490.97;;;20.98;59.63
7760;BME280;3924;48.830;9.262;2023-05-07T07:55:44;98498.16;;;20.84;59.85
7760;BME280;3924;48.830;9.262;2023-05-07T07:58:11;98499.38;;;20.67;60.43
7760;BME280;3924;48.830;9.262;2023-05-07T08:00:37;98495.84;;;20.51;60.48
7760;BME280;3924;48.830;9.262;2023-05-07T08:03:04;98493.84;;;20.47;60.45
7760;BME280;3924;48.830;9.262;2023-05-07T08:05:31;98493.06;;;20.66;60.17
7760;BME280;3924;48.830;9.262;2023-05-07T08:07:58;98498.88;;;20.81;59.86
7760;BME280;3924;48.830;9.262;2023-05-07T08:10:24;98497.50;;;20.90;59.57
7760;BME280;3924;48.830;9.262;2023-05-07T08:12:51;98498.53;;;21.01;59.37
7760;BME280;3924;48.830;9.262;2023-05-07T08:15:17;98489.13;;;21.06;59.09
7760;BME280;3924;48.830;9.262;2023-05-07T08:17:44;98486.03;;;21.08;59.14
7760;BME280;3924;48.830;9.262;2023-05-07T08:20:10;98497.78;;;21.04;59.23
7760;BME280;3924;48.830;9.262;2023-05-07T08:22:37;98496.13;;;21.00;59.41
7760;BME280;3924;48.830;9.262;2023-05-07T08:25:04;98493.72;;;20.98;59.28
7760;BME280;3924;48.830;9.262;2023-05-07T08:27:31;98487.22;;;20.87;59.39
7760;BME280;3924;48.830;9.262;2023-05-07T08:29:57;98500.03;;;20.99;59.27
7760;BME280;3924;48.830;9.262;2023-05-07T08:32:24;98495.81;;;21.24;58.80
7760;BME280;3924;48.830;9.262;2023-05-07T08:34:51;98491.53;;;21.46;58.28
7760;BME280;3924;48.830;9.262;2023-05-07T08:37:18;98492.97;;;21.40;58.29
7760;BME280;3924;48.830;9.262;2023-05-07T08:39:44;98494.13;;;21.20;58.71
7760;BME280;3924;48.830;9.262;2023-05-07T08:42:13;98488.34;;;21.06;59.02
7760;BME280;3924;48.830;9.262;2023-05-07T08:44:45;98491.03;;;21.02;59.32
7760;BME280;3924;48.830;9.262;2023-05-07T08:47:15;98497.78;;;21.04;59.00
7760;BME280;3924;48.830;9.262;2023-05-07T08:49:42;98493.00;;;21.21;58.60
7760;BME280;3924;48.830;9.262;2023-05-07T08:52:09;98499.38;;;21.44;58.36
7760;BME280;3924;48.830;9.262;2023-05-07T08:54:36;98501.09;;;21.52;58.00
7760;BME280;3924;48.830;9.262;2023-05-07T08:57:03;98503.06;;;21.75;57.68
7760;BME280;3924;48.830;9.262;2023-05-07T08:59:30;98500.31;;;21.98;57.26
7760;BME280;3924;48.830;9.262;2023-05-07T09:01:56;98501.22;;;22.05;56.98
7760;BME280;3924;48.830;9.262;2023-05-07T09:04:23;98499.66;;;22.08;56.95
7760;BME280;3924;48.830;9.262;2023-05-07T09:06:50;98497.03;;;22.15;56.86
7760;BME280;3924;48.830;9.262;2023-05-07T09:09:17;98488.19;;;22.29;56.58
7760;BME280;3924;48.830;9.262;2023-05-07T09:11:45;98493.47;;;22.37;56.60
7760;BME280;3924;48.830;9.262;2023-05-07T09:14:11;98494.78;;;22.47;56.11
7760;BME280;3924;48.830;9.262;2023-05-07T09:16:38;98499.53;;;22.50;56.33
7760;BME280;3924;48.830;9.262;2023-05-07T09:19:05;98490.13;;;22.55;56.03
7760;BME280;3924;48.830;9.262;2023-05-07T09:21:31;98483.69;;;22.74;55.78
7760;BME280;3924;48.830;9.262;2023-05-07T09:23:58;98487.38;;;22.85;55.58
7760;BME280;3924;48.830;9.262;2023-05-07T09:26:24;98479.81;;;23.08;55.06
7760;BME280;3924;48.830;9.262;2023-05-07T09:28:51;98478.47;;;23.32;54.58
7760;BME280;3924;48.830;9.262;2023-05-07T09:31:18;98470.03;;;23.55;54.22
7760;BME280;3924;48.830;9.262;2023-05-07T09:33:47;98472.59;;;23.74;53.79
7760;BME280;3924;48.830;9.262;2023-05-07T09:36:13;98467.91;;;23.82;53.72
7760;BME280;3924;48.830;9.262;2023-05-07T09:38:40;98477.88;;;23.94;53.70
7760;BME280;3924;48.830;9.262;2023-05-07T09:41:10;98471.66;;;24.04;53.48
7760;BME280;3924;48.830;9.262;2023-05-07T09:43:38;98474.81;;;24.06;53.44
7760;BME280;3924;48.830;9.262;2023-05-07T09:46:11;98464.94;;;24.09;53.30
7760;BME280;3924;48.830;9.262;2023-05-07T09:48:40;98451.13;;;24.12;53.07
7760;BME280;3924;48.830;9.262;2023-05-07T09:51:18;98455.56;;;24.27;53.00
7760;BME280;3924;48.830;9.262;2023-05-07T09:53:48;98453.75;;;24.46;52.40
7760;BME280;3924;48.830;9.262;2023-05-07T09:56:14;98453.00;;;24.56;52.35
7760;BME280;3924;48.830;9.262;2023-05-07T09:58:43;98449.84;;;24.58;52.46
7760;BME280;3924;48.830;9.262;2023-05-07T10:01:10;98450.97;;;24.49;52.34
7760;BME280;3924;48.830;9.262;2023-05-07T10:03:41;98460.56;;;24.59;52.16
7760;BME280;3924;48.830;9.262;2023-05-07T10:06:09;98454.22;;;24.59;52.05
7760;BME280;3924;48.830;9.262;2023-05-07T10:08:37;98458.97;;;24.58;51.98
7760;BME280;3924;48.830;9.262;2023-05-07T10:11:04;98446.78;;;24.11;52.80
7760;BME280;3924;48.830;9.262;2023-05-07T10:13:35;98451.00;;;23.94;53.08
7760;BME280;3924;48.830;9.262;2023-05-07T10:16:06;98443.69;;;24.23;52.50
7760;BME280;3924;48.830;9.262;2023-05-07T10:18:33;98436.75;;;24.51;52.07
7760;BME280;3924;48.830;9.262;2023-05-07T10:21:16;98438.19;;;24.31;52.47
7760;BME280;3924;48.830;9.262;2023-05-07T10:23:45;98437.13;;;23.94;52.93
7760;BME280;3924;48.830;9.262;2023-05-07T10:26:13;98434.59;;;23.71;53.26
7760;BME280;3924;48.830;9.262;2023-05-07T10:28:44;98430.38;;;23.44;53.79
7760;BME280;3924;48.830;9.262;2023-05-07T10:33:59;98435.97;;;23.10;54.43
7760;BME280;3924;48.830;9.262;2023-05-07T10:36:27;98435.97;;;23.10;54.22
7760;BME280;3924;48.830;9.262;2023-05-07T10:38:54;98429.25;;;23.11;54.33
7760;BME280;3924;48.830;9.262;2023-05-07T10:41:21;98434.91;;;23.22;54.22
7760;BME280;3924;48.830;9.262;2023-05-07T10:43:48;98422.19;;;23.58;53.12
7760;BME280;3924;48.830;9.262;2023-05-07T10:46:19;98421.41;;;24.06;52.28
7760;BME280;3924;48.830;9.262;2023-05-07T10:51:35;98432.78;;;24.52;51.32
7760;BME280;3924;48.830;9.262;2023-05-07T10:56:38;98415.50;;;24.14;52.02
7760;BME280;3924;48.830;9.262;2023-05-07T11:01:52;98407.00;;;23.86;52.08
7760;BME280;3924;48.830;9.262;2023-05-07T11:04:19;98409.44;;;23.94;52.22
7760;BME280;3924;48.830;9.262;2023-05-07T11:07:29;98414.41;;;24.26;51.32
7760;BME280;3924;48.830;9.262;2023-05-07T11:09:58;98406.69;;;24.64;50.59
7760;BME280;3924;48.830;9.262;2023-05-07T11:15:35;98405.56;;;24.79;50.32
7760;BME280;3924;48.830;9.262;2023-05-07T11:18:02;98408.81;;;24.99;49.80
7760;BME280;3924;48.830;9.262;2023-05-07T11:20:50;98403.25;;;25.02;49.66
7760;BME280;3924;48.830;9.262;2023-05-07T11:26:09;98407.69;;;25.18;49.00
7760;BME280;3924;48.830;9.262;2023-05-07T11:28:37;98404.44;;;24.94;49.65
7760;BME280;3924;48.830;9.262;2023-05-07T11:31:05;98394.81;;;24.63;50.20
7760;BME280;3924;48.830;9.262;2023-05-07T11:33:32;98397.50;;;24.42;50.70
7760;BME280;3924;48.830;9.262;2023-05-07T11:35:59;98397.91;;;24.44;50.37
7760;BME280;3924;48.830;9.262;2023-05-07T11:38:26;98393.13;;;24.41;50.53
7760;BME280;3924;48.830;9.262;2023-05-07T11:40:56;98395.88;;;24.34;50.42
7760;BME280;3924;48.830;9.262;2023-05-07T11:43:23;98394.69;;;24.35;50.33
7760;BME280;3924;48.830;9.262;2023-05-07T11:45:49;98392.38;;;24.47;49.97
7760;BME280;3924;48.830;9.262;2023-05-07T11:48:16;98382.16;;;24.69;49.56
7760;BME280;3924;48.830;9.262;2023-05-07T11:50:54;98390.16;;;24.89;49.20
7760;BME280;3924;48.830;9.262;2023-05-07T11:53:26;98394.84;;;24.70;49.50
7760;BME280;3924;48.830;9.262;2023-05-07T11:55:55;98390.75;;;24.39;49.86
7760;BME280;3924;48.830;9.262;2023-05-07T11:58:23;98385.03;;;24.11;50.12
7760;BME280;3924;48.830;9.262;2023-05-07T12:00:50;98398.34;;;23.91;50.51
7760;BME280;3924;48.830;9.262;2023-05-07T12:03:17;98412.50;;;23.75;50.87
7760;BME280;3924;48.830;9.262;2023-05-07T12:05:47;98411.91;;;23.55;51.17
7760;BME280;3924;48.830;9.262;2023-05-07T12:08:17;98418.84;;;23.38;51.26
7760;BME280;3924;48.830;9.262;2023-05-07T12:10:45;98417.53;;;23.25;51.64
7760;BME280;3924;48.830;9.262;2023-05-07T12:13:20;98414.69;;;23.14;51.67
7760;BME280;3924;48.830;9.262;2023-05-07T12:15:57;98403.88;;;23.02;52.01
7760;BME280;3924;48.830;9.262;2023-05-07T12:18:24;98410.88;;;22.92;52.04
7760;BME280;3924;48.830;9.262;2023-05-07T12:20:51;98417.03;;;22.79;51.97
7760;BME280;3924;48.830;9.262;2023-05-07T12:23:18;98414.91;;;22.69;52.32
7760;BME280;3924;48.830;9.262;2023-05-07T12:25:45;98411.22;;;22.57;52.32
7760;BME280;3924;48.830;9.262;2023-05-07T12:28:15;98409.53;;;22.49;52.44
7760;BME280;3924;48.830;9.262;2023-05-07T12:30:43;98411.41;;;22.42;52.67
7760;BME280;3924;48.830;9.262;2023-05-07T12:33:11;98410.94;;;22.36;52.73
7760;BME280;3924;48.830;9.262;2023-05-07T12:35:41;98415.94;;;22.27;52.89
7760;BME280;3924;48.830;9.262;2023-05-07T12:38:09;98418.63;;;22.20;52.97
7760;BME280;3924;48.830;9.262;2023-05-07T12:43:04;98422.34;;;22.08;53.05
7760;BME280;3924;48.830;9.262;2023-05-07T12:45:30;98439.22;;;22.03;53.12
7760;BME280;3924;48.830;9.262;2023-05-07T12:48:01;98445.09;;;21.98;53.21
7760;BME280;3924;48.830;9.262;2023-05-07T12:50:32;98452.09;;;21.92;53.14
7760;BME280;3924;48.830;9.262;2023-05-07T12:53:04;98461.31;;;21.76;53.45
7760;BME280;3924;48.830;9.262;2023-05-07T12:55:51;98460.13;;;21.54;54.14
7760;BME280;3924;48.830;9.262;2023-05-07T12:58:20;98451.94;;;21.35;54.50
7760;BME280;3924;48.830;9.262;2023-05-07T13:00:48;98450.34;;;21.15;55.41
7760;BME280;3924;48.830;9.262;2023-05-07T13:03:25;98460.97;;;20.93;56.02
7760;BME280;3924;48.830;9.262;2023-05-07T13:05:52;98467.16;;;20.71;56.78
7760;BME280;3924;48.830;9.262;2023-05-07T13:08:39;98472.53;;;20.29;57.98
7760;BME280;3924;48.830;9.262;2023-05-07T13:11:08;98477.63;;;19.95;58.85
7760;BME280;3924;48.830;9.262;2023-05-07T13:13:35;98479.69;;;19.66;59.81
7760;BME280;3924;48.830;9.262;2023-05-07T13:16:04;98488.16;;;19.46;60.57
7760;BME280;3924;48.830;9.262;2023-05-07T13:18:32;98496.50;;;19.21;61.47
7760;BME280;3924;48.830;9.262;2023-05-07T13:21:00;98516.88;;;19.04;62.12
7760;BME280;3924;48.830;9.262;2023-05-07T13:23:27;98521.59;;;18.92;62.60
7760;BME280;3924;48.830;9.262;2023-05-07T13:25:54;98544.66;;;18.75;63.20
7760;BME280;3924;48.830;9.262;2023-05-07T13:28:23;98539.97;;;18.51;63.89
7760;BME280;3924;48.830;9.262;2023-05-07T13:30:50;98543.56;;;18.39;64.33
7760;BME280;3924;48.830;9.262;2023-05-07T13:33:18;98545.16;;;18.28;64.47
7760;BME280;3924;48.830;9.262;2023-05-07T13:35:45;98548.81;;;18.08;65.09
7760;BME280;3924;48.830;9.262;2023-05-07T13:38:11;98547.19;;;17.94;65.53
7760;BME280;3924;48.830;9.262;2023-05-07T13:40:37;98543.28;;;17.83;65.81
7760;BME280;3924;48.830;9.262;2023-05-07T13:43:05;98530.47;;;17.75;66.06